Time;durP1;ratioP1;P1;durP2;ratioP2;P2;SDS_P1;SDS_P2;PMS_P1;PMS_P2;Temp;Humidity;BMP_temperature;BMP_pressure;BME280_temperature;BME280_humidity;BME280_pressure;Samples;Min_cycle;Max_cycle;Signal;HPM_P1;HPM_P2
2023/08/13 00:00:21;;;;;;;6.68;5.15;;;21.70;52.00;;;;;;5004437;28;114395;-79
2023/08/13 00:02:49;;;;;;;10.13;6.50;;;21.70;52.10;;;;;;4988708;28;114471;-80
2023/08/13 00:05:16;;;;;;;7.18;5.70;;;21.70;52.40;;;;;;5004181;28;115035;-79
2023/08/13 00:07:43;;;;;;;13.85;8.52;;;21.80;52.10;;;;;;5004078;28;115775;-79
2023/08/13 00:10:10;;;;;;;10.68;6.70;;;21.70;52.70;;;;;;5006061;28;114384;-79
2023/08/13 00:12:37;;;;;;;8.93;5.93;;;21.70;52.70;;;;;;5006304;28;114162;-80
2023/08/13 00:15:04;;;;;;;8.02;5.53;;;21.70;52.30;;;;;;5004037;28;114965;-79
2023/08/13 00:17:31;;;;;;;7.85;5.57;;;21.70;52.10;;;;;;5004370;28;114570;-78
2023/08/13 00:19:58;;;;;;;10.30;6.47;;;21.60;52.10;;;;;;5006220;28;114282;-79
2023/08/13 00:22:25;;;;;;;8.43;5.80;;;21.60;52.40;;;;;;5005831;28;114290;-79
2023/08/13 00:24:54;;;;;;;7.97;6.72;;;21.70;52.10;;;;;;5005315;28;115453;-79
2023/08/13 00:27:21;;;;;;;10.15;6.43;;;21.70;52.40;;;;;;5004302;28;114685;-78
2023/08/13 00:29:48;;;;;;;8.82;5.88;;;21.60;52.50;;;;;;5005821;28;114130;-78
2023/08/13 00:32:15;;;;;;;8.73;6.57;;;21.60;52.20;;;;;;4987963;28;114538;-79
2023/08/13 00:34:43;;;;;;;8.60;6.15;;;21.60;52.50;;;;;;5005383;28;114904;-79
2023/08/13 00:37:10;;;;;;;10.88;7.28;;;21.60;52.50;;;;;;5003715;28;114667;-79
2023/08/13 00:39:37;;;;;;;9.80;6.85;;;21.60;52.80;;;;;;5005852;28;114300;-79
2023/08/13 00:42:04;;;;;;;9.15;6.50;;;21.50;52.80;;;;;;5005679;28;114408;-79
2023/08/13 00:44:31;;;;;;;8.15;6.18;;;21.50;52.80;;;;;;4987591;28;114911;-79
2023/08/13 00:46:58;;;;;;;8.05;6.00;;;21.50;52.70;;;;;;5006082;28;114640;-79
2023/08/13 00:49:25;;;;;;;11.35;6.90;;;21.50;52.60;;;;;;5004288;28;114295;-78
2023/08/13 00:51:53;;;;;;;7.97;5.72;;;21.50;52.80;;;;;;4971637;28;114100;-79
2023/08/13 00:54:21;;;;;;;9.98;5.88;;;21.60;52.80;;;;;;4987300;28;114871;-78
2023/08/13 00:56:48;;;;;;;9.57;6.15;;;21.50;52.70;;;;;;5004009;28;115986;-79
2023/08/13 00:59:15;;;;;;;8.98;6.55;;;21.50;52.80;;;;;;4972094;28;116289;-78
2023/08/13 01:01:42;;;;;;;7.95;5.80;;;21.50;52.90;;;;;;5004546;28;114287;-79
2023/08/13 01:04:10;;;;;;;11.23;6.43;;;21.50;52.60;;;;;;5004639;28;114922;-79
2023/08/13 01:07:02;;;;;;;8.90;5.82;;;21.50;52.70;;;;;;5005298;28;114638;-78
2023/08/13 01:10:02;;;;;;;8.23;5.57;;;21.60;52.30;;;;;;5004375;28;114305;-79
2023/08/13 01:12:55;;;;;;;8.77;5.75;;;21.60;52.30;;;;;;4988802;28;114560;-78
2023/08/13 01:15:30;;;;;;;9.32;5.47;;;21.60;52.40;;;;;;5000628;28;114935;-79
2023/08/13 01:17:57;;;;;;;8.13;5.82;;;21.50;52.60;;;;;;5004666;28;115350;-79
2023/08/13 01:20:31;;;;;;;7.28;5.68;;;21.40;52.60;;;;;;5004133;28;115074;-79
2023/08/13 01:22:58;;;;;;;;;;;21.50;52.60;;;;;;5004848;28;114277;-79
2023/08/13 01:25:28;;;;;;;8.25;5.97;;;21.40;52.10;;;;;;5003689;28;115704;-78
2023/08/13 01:28:02;;;;;;;9.43;6.82;;;21.30;52.80;;;;;;4987139;28;114701;-79
2023/08/13 01:30:39;;;;;;;8.52;6.00;;;21.40;53.10;;;;;;5003659;28;114716;-78
2023/08/13 01:33:11;;;;;;;7.57;5.70;;;21.40;52.80;;;;;;5004445;28;114639;-79
2023/08/13 01:35:38;;;;;;;9.02;5.93;;;21.40;52.80;;;;;;4986562;28;116186;-79
2023/08/13 01:38:05;;;;;;;7.05;6.00;;;21.30;52.90;;;;;;5002367;28;114550;-78
2023/08/13 01:40:32;;;;;;;9.05;6.30;;;21.30;53.00;;;;;;5003009;28;114303;-78
2023/08/13 01:42:59;;;;;;;8.32;5.95;;;21.30;53.00;;;;;;5003647;28;114352;-79
2023/08/13 01:45:27;;;;;;;7.50;5.70;;;21.30;52.90;;;;;;5002741;28;114851;-79
2023/08/13 01:47:54;;;;;;;8.38;5.70;;;21.30;52.90;;;;;;5002886;28;114730;-79
2023/08/13 01:50:22;;;;;;;7.10;5.13;;;21.30;52.90;;;;;;4987017;28;114241;-79
2023/08/13 01:52:49;;;;;;;7.82;5.40;;;21.30;53.00;;;;;;4986969;28;114219;-79
2023/08/13 01:55:16;;;;;;;8.07;5.60;;;21.30;53.00;;;;;;5003812;28;114900;-79
2023/08/13 01:57:44;;;;;;;6.82;5.53;;;21.30;52.90;;;;;;5003502;28;115342;-79
2023/08/13 02:00:12;;;;;;;8.10;5.55;;;21.30;52.80;;;;;;4986936;28;114200;-78
2023/08/13 02:02:40;;;;;;;8.77;5.40;;;21.30;52.80;;;;;;5003325;28;114373;-79
2023/08/13 02:05:07;;;;;;;8.50;5.43;;;21.40;52.70;;;;;;5003274;28;114980;-78
2023/08/13 02:07:34;;;;;;;7.00;5.55;;;21.40;52.70;;;;;;5002651;28;117086;-79
2023/08/13 02:10:02;;;;;;;7.47;5.38;;;21.40;52.70;;;;;;5004385;28;114670;-79
2023/08/13 02:12:30;;;;;;;7.68;5.20;;;21.40;52.70;;;;;;5003342;28;114750;-79
2023/08/13 02:14:58;;;;;;;8.45;5.25;;;21.40;52.60;;;;;;5003947;28;115064;-79
2023/08/13 02:17:25;;;;;;;6.35;4.90;;;21.30;52.70;;;;;;4986254;28;115361;-79
2023/08/13 02:19:54;;;;;;;6.38;4.80;;;21.30;52.80;;;;;;5004288;28;114309;-79
2023/08/13 02:22:22;;;;;;;8.80;5.13;;;21.40;52.70;;;;;;5004051;28;114302;-78
2023/08/13 02:24:49;;;;;;;6.88;5.25;;;21.40;52.80;;;;;;5003834;28;114943;-79
2023/08/13 02:27:16;;;;;;;7.78;5.30;;;21.40;52.70;;;;;;4986570;28;114765;-79
2023/08/13 02:29:43;;;;;;;6.53;5.22;;;21.40;52.60;;;;;;5003032;28;114405;-79
2023/08/13 02:32:10;;;;;;;7.10;5.03;;;21.40;52.60;;;;;;5004148;28;114506;-78
2023/08/13 02:34:45;;;;;;;7.13;5.20;;;21.40;52.60;;;;;;4987114;28;115499;-79
2023/08/13 02:37:12;;;;;;;6.50;4.80;;;21.50;52.50;;;;;;4985314;28;114812;-78
2023/08/13 02:39:39;;;;;;;6.95;4.70;;;21.40;52.50;;;;;;5003138;28;114402;-79
2023/08/13 02:42:06;;;;;;;6.75;4.82;;;21.40;52.50;;;;;;5002968;28;114260;-78
2023/08/13 02:44:33;;;;;;;8.25;5.30;;;21.40;52.50;;;;;;5003313;28;114837;-79
2023/08/13 02:47:00;;;;;;;6.20;5.28;;;21.40;52.60;;;;;;4986501;28;114652;-77
2023/08/13 02:49:27;;;;;;;7.22;5.43;;;21.40;52.60;;;;;;5003087;28;114106;-78
2023/08/13 02:51:54;;;;;;;6.30;4.82;;;21.40;52.70;;;;;;4985523;28;114577;-78
2023/08/13 02:54:21;;;;;;;6.20;4.70;;;21.30;52.70;;;;;;5001968;28;114905;-79
2023/08/13 02:56:48;;;;;;;6.47;4.93;;;21.30;52.70;;;;;;5001967;28;116556;-78
2023/08/13 02:59:15;;;;;;;7.90;4.78;;;21.30;52.90;;;;;;5002548;28;114254;-78
2023/08/13 03:01:45;;;;;;;7.50;5.40;;;21.30;52.80;;;;;;5003148;28;114104;-78
2023/08/13 03:04:12;;;;;;;7.22;5.38;;;21.30;52.90;;;;;;5003378;28;114910;-78
2023/08/13 03:06:40;;;;;;;8.52;5.70;;;21.30;52.80;;;;;;5002935;28;114651;-79
2023/08/13 03:09:09;;;;;;;8.80;5.55;;;21.30;52.90;;;;;;5004923;28;114255;-79
2023/08/13 03:11:36;;;;;;;5.85;4.72;;;21.30;52.80;;;;;;5003879;28;114368;-78
2023/08/13 03:14:03;;;;;;;8.40;6.03;;;21.30;52.80;;;;;;4985246;28;114907;-78
2023/08/13 03:16:30;;;;;;;10.68;6.25;;;21.30;53.00;;;;;;4985307;28;114677;-78
2023/08/13 03:18:57;;;;;;;11.20;6.53;;;21.30;53.00;;;;;;5002415;28;114222;-79
2023/08/13 03:21:24;;;;;;;7.25;5.40;;;21.30;53.00;;;;;;5002627;28;114252;-79
2023/08/13 03:23:51;;;;;;;9.05;6.38;;;21.20;53.00;;;;;;5002484;28;116195;-79
2023/08/13 03:26:18;;;;;;;7.25;5.10;;;21.20;53.10;;;;;;5003036;28;114770;-79
2023/08/13 03:28:45;;;;;;;6.68;5.28;;;21.10;53.20;;;;;;5002526;28;114271;-78
2023/08/13 03:31:16;;;;;;;10.43;5.63;;;21.20;53.20;;;;;;5002176;28;114357;-79
2023/08/13 03:33:50;;;;;;;7.63;5.35;;;21.10;53.20;;;;;;4969622;28;118456;-79
2023/08/13 03:36:18;;;;;;;9.10;5.53;;;21.10;53.30;;;;;;4985008;28;114680;-78
2023/08/13 03:38:46;;;;;;;5.47;4.65;;;21.00;53.40;;;;;;5002198;28;114259;-79
2023/08/13 03:41:15;;;;;;;5.82;4.85;;;20.70;53.80;;;;;;5002123;28;114639;-79
2023/08/13 03:43:42;;;;;;;7.55;5.20;;;20.40;54.40;;;;;;5002976;28;115571;-78
2023/08/13 03:46:09;;;;;;;6.22;4.95;;;20.30;54.80;;;;;;5002561;28;115150;-79
2023/08/13 03:48:36;;;;;;;7.13;4.85;;;20.30;55.10;;;;;;4985485;28;114150;-79
2023/08/13 03:51:04;;;;;;;7.57;4.75;;;20.30;55.20;;;;;;5003523;28;114192;-79
2023/08/13 03:53:32;;;;;;;6.35;4.63;;;20.30;55.20;;;;;;5001229;28;115427;-78
2023/08/13 03:55:59;;;;;;;7.43;5.07;;;20.30;55.20;;;;;;5002997;28;114942;-78
2023/08/13 03:58:28;;;;;;;6.15;4.43;;;20.40;55.10;;;;;;4985358;28;114190;-79
2023/08/13 04:00:55;;;;;;;5.40;4.65;;;20.50;55.00;;;;;;5002330;28;114256;-78
2023/08/13 04:03:22;;;;;;;5.45;4.40;;;20.60;54.70;;;;;;5003504;28;115314;-78
2023/08/13 04:05:53;;;;;;;5.90;4.50;;;20.70;54.60;;;;;;5004565;28;114397;-78
2023/08/13 04:08:20;;;;;;;8.13;4.35;;;20.90;54.50;;;;;;5005226;28;114270;-79
2023/08/13 04:10:52;;;;;;;6.30;3.97;;;21.20;53.90;;;;;;5004869;28;114344;-79
2023/08/13 04:13:19;;;;;;;6.00;4.07;;;21.40;53.40;;;;;;4987947;28;114834;-78
2023/08/13 04:15:46;;;;;;;6.85;4.32;;;21.60;52.90;;;;;;5004170;28;114718;-79
2023/08/13 04:18:14;;;;;;;5.55;3.92;;;21.80;52.50;;;;;;5004988;28;114127;-78
2023/08/13 04:20:41;;;;;;;5.47;3.97;;;22.00;52.00;;;;;;4988526;28;114820;-78
2023/08/13 04:23:08;;;;;;;5.53;4.10;;;22.20;51.50;;;;;;4971016;28;115179;-79
2023/08/13 04:25:38;;;;;;;7.03;4.70;;;22.20;51.30;;;;;;4988183;28;114856;-78
2023/08/13 04:28:07;;;;;;;5.60;4.13;;;22.30;51.40;;;;;;4988543;28;114487;-79
2023/08/13 04:30:38;;;;;;;5.40;4.55;;;22.20;51.00;;;;;;5005751;28;114548;-79
2023/08/13 04:33:05;;;;;;;6.65;3.83;;;22.20;51.10;;;;;;4986963;28;115077;-79
2023/08/13 04:35:34;;;;;;;6.13;3.88;;;22.30;51.20;;;;;;5003928;28;114649;-79
2023/08/13 04:38:08;;;;;;;8.50;4.00;;;22.30;51.00;;;;;;5005685;28;114017;-79
2023/08/13 04:40:40;;;;;;;4.93;3.63;;;22.50;50.70;;;;;;4972836;28;114639;-79
2023/08/13 04:43:07;;;;;;;5.50;3.80;;;22.50;50.50;;;;;;5005508;28;114888;-80
2023/08/13 04:45:34;;;;;;;6.50;4.10;;;22.70;50.40;;;;;;4988332;28;114701;-78
2023/08/13 04:48:03;;;;;;;8.02;4.00;;;22.80;50.20;;;;;;5004919;28;114335;-80
2023/08/13 04:50:34;;;;;;;6.63;4.43;;;22.90;49.80;;;;;;4989553;28;114179;-79
2023/08/13 04:53:01;;;;;;;6.63;4.20;;;22.80;49.80;;;;;;5005596;28;114967;-80
2023/08/13 04:55:28;;;;;;;7.10;5.07;;;22.80;49.90;;;;;;5004707;28;114697;-80
2023/08/13 04:57:55;;;;;;;7.32;4.97;;;22.70;50.30;;;;;;5006108;28;114286;-79
2023/08/13 05:00:22;;;;;;;7.57;5.15;;;22.80;50.20;;;;;;5004410;28;114415;-79
2023/08/13 05:02:50;;;;;;;8.40;5.05;;;22.80;50.30;;;;;;5003883;28;115231;-79
2023/08/13 05:05:17;;;;;;;7.80;5.10;;;22.80;50.30;;;;;;4987103;28;114787;-79
2023/08/13 05:07:46;;;;;;;7.47;4.90;;;22.80;50.30;;;;;;4989050;28;114576;-81
2023/08/13 05:10:13;;;;;;;6.65;4.47;;;22.80;50.20;;;;;;5005732;28;113985;-78
2023/08/13 05:12:40;;;;;;;8.35;3.97;;;22.80;50.10;;;;;;5004770;28;114920;-80
2023/08/13 05:15:08;;;;;;;4.78;3.83;;;22.60;50.20;;;;;;5002957;28;114662;-80
2023/08/13 05:17:37;;;;;;;5.20;3.95;;;22.50;50.40;;;;;;5004016;28;114174;-79
2023/08/13 05:20:06;;;;;;;6.97;4.45;;;22.30;50.90;;;;;;4987575;28;114411;-80
2023/08/13 05:22:33;;;;;;;5.85;3.97;;;22.20;51.30;;;;;;5002680;28;115243;-80
2023/08/13 05:25:00;;;;;;;5.35;4.00;;;22.10;51.40;;;;;;5003019;28;114538;-79
2023/08/13 05:27:27;;;;;;;4.88;3.88;;;22.10;51.60;;;;;;5004790;28;114192;-79
2023/08/13 05:29:54;;;;;;;6.20;3.97;;;22.00;51.80;;;;;;5003574;28;114143;-80
2023/08/13 05:32:22;;;;;;;6.07;4.25;;;21.90;51.80;;;;;;5002536;28;114898;-79
2023/08/13 05:34:49;;;;;;;5.70;3.92;;;21.90;51.80;;;;;;5004039;28;114647;-80
2023/08/13 05:37:17;;;;;;;6.88;4.10;;;21.80;52.10;;;;;;5002702;28;114211;-80
2023/08/13 05:39:44;;;;;;;6.18;3.90;;;21.80;52.30;;;;;;5003660;28;114640;-79
2023/08/13 05:42:13;;;;;;;4.38;3.60;;;21.70;52.50;;;;;;5002437;28;116157;-79
2023/08/13 05:44:40;;;;;;;6.22;3.70;;;21.70;52.70;;;;;;5003699;28;115221;-80
2023/08/13 05:47:07;;;;;;;5.40;3.60;;;21.70;52.80;;;;;;5002831;28;114224;-80
2023/08/13 05:49:34;;;;;;;5.00;3.70;;;21.70;52.80;;;;;;5004287;28;114393;-79
2023/08/13 05:52:02;;;;;;;5.78;3.70;;;21.70;53.00;;;;;;5005337;28;114532;-79
2023/08/13 05:54:29;;;;;;;5.50;3.58;;;21.70;53.10;;;;;;5004265;28;114815;-78
2023/08/13 05:56:56;;;;;;;5.25;3.47;;;21.80;53.00;;;;;;5003201;28;114737;-79
2023/08/13 05:59:23;;;;;;;6.53;3.60;;;21.80;52.90;;;;;;5003352;28;114414;-79
2023/08/13 06:01:50;;;;;;;4.55;3.40;;;21.80;53.00;;;;;;5002435;28;115481;-80
2023/08/13 06:04:18;;;;;;;5.07;3.42;;;21.80;52.90;;;;;;5004370;28;116930;-80
2023/08/13 06:06:45;;;;;;;4.40;3.60;;;21.80;53.10;;;;;;5005028;28;114160;-79
2023/08/13 06:09:12;;;;;;;5.07;3.60;;;21.90;52.50;;;;;;5005012;28;114351;-79
2023/08/13 06:11:39;;;;;;;4.93;4.18;;;22.10;52.90;;;;;;5003526;28;114873;-80
2023/08/13 06:14:06;;;;;;;5.35;3.90;;;22.20;52.30;;;;;;4986055;28;115745;-79
2023/08/13 06:16:33;;;;;;;4.70;3.55;;;22.30;52.20;;;;;;5003268;28;114207;-79
2023/08/13 06:19:01;;;;;;;5.05;3.95;;;22.40;52.00;;;;;;5004543;28;114056;-81
2023/08/13 06:21:28;;;;;;;5.22;3.85;;;22.50;51.90;;;;;;5003756;28;114834;-80
2023/08/13 06:23:55;;;;;;;5.43;3.40;;;22.50;51.90;;;;;;5003232;28;114560;-80
2023/08/13 06:26:22;;;;;;;4.75;3.30;;;22.50;51.60;;;;;;5004137;28;114039;-80
2023/08/13 06:28:49;;;;;;;5.72;3.42;;;22.50;51.40;;;;;;5004151;28;114250;-78
2023/08/13 06:31:16;;;;;;;5.50;3.30;;;22.50;51.50;;;;;;5003398;28;115003;-79
2023/08/13 06:34:04;;;;;;;5.38;3.70;;;22.50;51.50;;;;;;5003251;28;114768;-80
2023/08/13 06:36:31;;;;;;;6.45;3.50;;;22.40;51.30;;;;;;5002685;28;114337;-79
2023/08/13 06:38:58;;;;;;;4.45;3.28;;;22.30;51.80;;;;;;5003632;28;114615;-79
2023/08/13 06:41:25;;;;;;;4.80;3.40;;;22.30;51.90;;;;;;5001755;28;114914;-79
2023/08/13 06:43:52;;;;;;;4.93;3.33;;;22.40;52.00;;;;;;5003055;28;114666;-79
2023/08/13 06:46:19;;;;;;;4.35;3.40;;;22.50;51.50;;;;;;4985949;28;114140;-79
2023/08/13 06:48:47;;;;;;;5.35;3.20;;;22.60;51.20;;;;;;5004429;28;114354;-79
2023/08/13 06:51:14;;;;;;;5.30;2.90;;;22.80;51.20;;;;;;5003221;28;114871;-78
2023/08/13 06:53:41;;;;;;;4.93;3.17;;;22.90;51.00;;;;;;5001748;28;115631;-80
2023/08/13 06:56:08;;;;;;;5.88;3.38;;;23.00;50.60;;;;;;5003235;28;114310;-79
2023/08/13 06:58:35;;;;;;;4.88;3.28;;;23.10;50.20;;;;;;5003632;28;114084;-79
2023/08/13 07:01:02;;;;;;;4.78;3.80;;;23.10;50.40;;;;;;5002149;28;114916;-80
2023/08/13 07:03:30;;;;;;;6.53;3.72;;;23.10;50.40;;;;;;5002811;28;114674;-80
2023/08/13 07:05:57;;;;;;;4.90;3.45;;;23.20;50.50;;;;;;5003507;28;114193;-79
2023/08/13 07:08:24;;;;;;;4.40;3.10;;;23.30;49.90;;;;;;5003315;28;114671;-79
2023/08/13 07:10:51;;;;;;;4.13;3.30;;;23.40;49.80;;;;;;4985037;28;115244;-80
2023/08/13 07:13:18;;;;;;;4.78;3.13;;;23.30;49.60;;;;;;5002789;28;115108;-79
2023/08/13 07:15:45;;;;;;;4.68;3.40;;;23.40;49.70;;;;;;5004042;28;114132;-80
2023/08/13 07:18:12;;;;;;;4.72;3.08;;;23.40;50.00;;;;;;5003925;28;114236;-80
2023/08/13 07:20:39;;;;;;;4.90;3.30;;;23.50;49.80;;;;;;5002722;28;115448;-81
2023/08/13 07:23:06;;;;;;;5.38;2.95;;;23.50;49.50;;;;;;4985049;28;116185;-79
2023/08/13 07:25:34;;;;;;;4.72;3.20;;;23.60;49.40;;;;;;5002274;28;114326;-78
2023/08/13 07:28:01;;;;;;;4.65;3.53;;;23.60;49.40;;;;;;5004778;28;114326;-79
2023/08/13 07:30:28;;;;;;;5.28;3.35;;;23.70;49.20;;;;;;5004090;28;114854;-79
2023/08/13 07:32:55;;;;;;;4.40;3.55;;;23.70;48.90;;;;;;4985289;28;115169;-79
2023/08/13 07:35:23;;;;;;;3.88;3.00;;;23.70;49.20;;;;;;5002301;28;114340;-79
2023/08/13 07:37:50;;;;;;;5.57;3.10;;;23.70;49.10;;;;;;5003778;28;114393;-80
2023/08/13 07:40:18;;;;;;;4.88;3.35;;;23.70;49.10;;;;;;5005598;28;114951;-81
2023/08/13 07:42:45;;;;;;;4.25;3.17;;;23.80;48.50;;;;;;5005904;28;114806;-80
2023/08/13 07:45:12;;;;;;;6.60;3.40;;;23.80;48.30;;;;;;5005806;28;114245;-80
2023/08/13 07:47:39;;;;;;;4.88;3.40;;;23.80;48.30;;;;;;5006729;28;114265;-80
2023/08/13 07:50:07;;;;;;;4.72;2.78;;;23.80;48.50;;;;;;5005481;28;114932;-81
2023/08/13 07:52:35;;;;;;;6.70;3.47;;;23.90;48.40;;;;;;5006086;28;114627;-79
2023/08/13 07:55:02;;;;;;;5.68;3.72;;;24.00;48.40;;;;;;5006300;28;114166;-81
2023/08/13 07:57:33;;;;;;;4.82;3.67;;;24.20;48.30;;;;;;5005901;28;114429;-78
2023/08/13 08:00:01;;;;;;;5.10;3.30;;;24.30;47.30;;;;;;5005699;28;114885;-80
2023/08/13 08:02:39;;;;;;;3.88;2.95;;;24.30;47.40;;;;;;5004762;28;117390;-79
2023/08/13 08:05:07;;;;;;;5.53;3.15;;;24.30;47.30;;;;;;5005317;28;114036;-80
2023/08/13 08:07:34;;;;;;;3.97;3.13;;;24.50;47.00;;;;;;4973010;28;114418;-80
2023/08/13 08:10:01;;;;;;;6.43;3.25;;;24.60;47.00;;;;;;5005675;28;116282;-79
2023/08/13 08:12:28;;;;;;;3.53;2.78;;;24.70;46.60;;;;;;5005854;28;114990;-79
2023/08/13 08:14:55;;;;;;;5.40;3.15;;;24.80;45.80;;;;;;5004251;28;114239;-78
2023/08/13 08:17:22;;;;;;;6.35;3.28;;;24.80;46.40;;;;;;4988635;28;114289;-80
2023/08/13 08:19:50;;;;;;;5.82;2.80;;;25.00;46.40;;;;;;4987930;28;114971;-79
2023/08/13 08:22:17;;;;;;;4.55;3.00;;;25.30;45.90;;;;;;5005571;28;115864;-79
2023/08/13 08:24:44;;;;;;;7.43;3.25;;;25.40;45.30;;;;;;5006531;28;114148;-79
2023/08/13 08:27:11;;;;;;;4.68;3.15;;;25.50;45.40;;;;;;5006239;28;114363;-80
2023/08/13 08:29:38;;;;;;;7.57;3.15;;;25.60;45.00;;;;;;5005414;28;115264;-80
2023/08/13 08:32:05;;;;;;;4.72;2.80;;;25.60;44.70;;;;;;4987893;28;115951;-80
2023/08/13 08:34:33;;;;;;;4.50;2.80;;;25.80;44.20;;;;;;5006291;28;114116;-80
2023/08/13 08:37:00;;;;;;;7.88;3.10;;;25.80;44.10;;;;;;4988181;28;114499;-77
2023/08/13 08:39:27;;;;;;;3.88;3.10;;;25.90;44.00;;;;;;5003738;28;114579;-79
2023/08/13 08:41:56;;;;;;;4.05;2.90;;;25.90;43.60;;;;;;5004938;28;114740;-79
2023/08/13 08:44:23;;;;;;;6.15;2.85;;;26.00;43.60;;;;;;4988513;28;114420;-80
2023/08/13 08:46:52;;;;;;;6.30;3.03;;;26.10;44.20;;;;;;5004570;28;114226;-80
2023/08/13 08:49:21;;;;;;;5.15;3.50;;;26.20;44.00;;;;;;4986282;28;114925;-81
2023/08/13 08:51:48;;;;;;;4.53;3.25;;;26.40;42.80;;;;;;5004926;28;116022;-80
2023/08/13 08:54:15;;;;;;;5.78;3.63;;;26.50;42.60;;;;;;5005518;28;114241;-80
2023/08/13 08:56:42;;;;;;;5.78;3.58;;;26.60;42.50;;;;;;5004804;28;114576;-80
2023/08/13 08:59:10;;;;;;;6.45;3.70;;;26.70;42.30;;;;;;5003979;28;116028;-79
2023/08/13 09:01:37;;;;;;;4.22;3.28;;;26.80;42.20;;;;;;5004663;28;116763;-80
2023/08/13 09:04:04;;;;;;;5.35;3.70;;;26.70;41.80;;;;;;5005564;28;114169;-80
2023/08/13 09:06:53;;;;;;;5.80;3.40;;;26.50;42.00;;;;;;5004150;28;114506;-80
2023/08/13 09:09:20;;;;;;;4.75;2.92;;;26.40;41.90;;;;;;5004441;28;114907;-80
2023/08/13 09:11:47;;;;;;;6.00;3.05;;;26.30;42.30;;;;;;4986768;28;117687;-79
2023/08/13 09:14:15;;;;;;;5.00;3.10;;;26.30;42.80;;;;;;4987484;28;114132;-80
2023/08/13 09:16:49;;;;;;;4.88;3.20;;;26.40;42.70;;;;;;5004084;28;114368;-80
2023/08/13 09:19:16;;;;;;;5.55;3.22;;;26.40;42.20;;;;;;5003326;28;115202;-80
2023/08/13 09:22:00;;;;;;;5.93;3.40;;;26.50;42.40;;;;;;5004412;28;114585;-79
2023/08/13 09:24:31;;;;;;;;;;;26.80;42.10;;;;;;5004398;28;114165;-80
2023/08/13 09:26:58;;;;;;;7.20;3.15;;;26.80;42.60;;;;;;5005100;28;114388;-79
2023/08/13 09:29:30;;;;;;;7.65;3.28;;;26.90;42.00;;;;;;4986169;28;114892;-80
2023/08/13 09:31:57;;;;;;;4.97;2.88;;;26.90;42.30;;;;;;5003016;28;114737;-80
2023/08/13 09:34:28;;;;;;;5.13;3.13;;;27.10;41.80;;;;;;5003829;28;114056;-80
2023/08/13 09:36:56;;;;;;;5.43;3.45;;;27.00;41.50;;;;;;5004450;28;114188;-79
2023/08/13 09:39:24;;;;;;;5.80;2.92;;;26.90;42.00;;;;;;4986277;28;114931;-79
2023/08/13 09:41:51;;;;;;;4.78;3.15;;;26.90;41.90;;;;;;5002937;28;115830;-79
2023/08/13 09:44:19;;;;;;;7.35;3.25;;;27.10;42.00;;;;;;5003547;28;114219;-79
2023/08/13 09:46:59;;;;;;;7.00;3.10;;;27.20;41.80;;;;;;4987301;28;114343;-79
2023/08/13 09:49:28;;;;;;;3.60;2.70;;;27.40;42.00;;;;;;5002467;28;117052;-79
2023/08/13 09:51:56;;;;;;;5.18;2.90;;;27.40;41.00;;;;;;5003807;28;114656;-79
2023/08/13 09:54:44;;;;;;;4.25;2.97;;;27.60;41.50;;;;;;5002649;28;114251;-80
2023/08/13 09:57:12;;;;;;;4.72;2.65;;;27.70;40.80;;;;;;4986861;28;114336;-80
2023/08/13 09:59:39;;;;;;;4.82;3.10;;;27.60;40.50;;;;;;4985747;28;114791;-80
2023/08/13 10:02:11;;;;;;;5.63;2.97;;;27.70;40.10;;;;;;5002545;28;114632;-80
2023/08/13 10:04:41;;;;;;;3.45;2.65;;;27.60;40.90;;;;;;5004329;28;114409;-80
2023/08/13 10:07:08;;;;;;;5.07;3.00;;;27.70;40.70;;;;;;5004253;28;114506;-79
2023/08/13 10:09:36;;;;;;;5.45;2.90;;;27.60;41.00;;;;;;5003566;28;114975;-80
2023/08/13 10:12:05;;;;;;;6.38;3.05;;;27.70;41.30;;;;;;5003925;28;114789;-79
2023/08/13 10:14:32;;;;;;;7.25;2.90;;;27.70;41.20;;;;;;5003449;28;114787;-79
2023/08/13 10:17:05;;;;;;;5.00;3.30;;;27.70;41.00;;;;;;5007287;28;114341;-80
2023/08/13 10:19:39;;;;;;;6.40;3.30;;;27.80;41.50;;;;;;5003939;28;114780;-79
2023/08/13 10:22:08;;;;;;;5.07;3.20;;;27.80;40.80;;;;;;5003417;28;114618;-80
2023/08/13 10:24:36;;;;;;;4.07;2.80;;;27.80;40.50;;;;;;5003081;28;114167;-80
2023/08/13 10:27:03;;;;;;;4.65;3.17;;;27.80;40.80;;;;;;5004305;28;114378;-80
2023/08/13 10:29:37;;;;;;;4.43;2.80;;;27.80;41.40;;;;;;5004232;28;114810;-80
2023/08/13 10:32:14;;;;;;;7.15;3.53;;;27.80;41.50;;;;;;5003689;28;114666;-79
2023/08/13 10:34:47;;;;;;;5.13;3.25;;;28.00;41.90;;;;;;5003576;28;114233;-80
2023/08/13 10:37:17;;;;;;;5.72;3.67;;;28.10;42.00;;;;;;5003162;28;114446;-81
2023/08/13 10:39:47;;;;;;;6.53;3.20;;;28.20;41.50;;;;;;4985783;28;115508;-80
2023/08/13 10:42:27;;;;;;;4.07;3.00;;;28.30;40.80;;;;;;4985697;28;114737;-79
2023/08/13 10:45:02;;;;;;;5.40;3.10;;;28.40;40.90;;;;;;5002575;28;115041;-79
2023/08/13 10:47:51;;;;;;;6.97;3.47;;;28.40;40.90;;;;;;5003390;28;114206;-79
2023/08/13 10:50:28;;;;;;;6.00;3.40;;;28.40;41.60;;;;;;5003576;28;114938;-80
2023/08/13 10:53:01;;;;;;;6.50;3.33;;;28.50;40.40;;;;;;5001839;28;114711;-80
2023/08/13 10:55:30;;;;;;;5.85;3.55;;;28.50;40.10;;;;;;5004016;28;114360;-79
2023/08/13 10:57:58;;;;;;;6.90;3.80;;;28.30;40.20;;;;;;5002612;28;114124;-80
2023/08/13 11:00:25;;;;;;;4.85;3.72;;;28.30;40.70;;;;;;5002156;28;116102;-80
2023/08/13 11:02:53;;;;;;;6.75;3.70;;;28.30;40.40;;;;;;5002401;28;114538;-79
2023/08/13 11:05:21;;;;;;;5.80;3.15;;;28.30;40.60;;;;;;5002320;28;114304;-80
2023/08/13 11:07:48;;;;;;;4.03;3.22;;;28.30;40.70;;;;;;5002593;28;114275;-81
2023/08/13 11:10:17;;;;;;;4.35;3.20;;;28.30;41.20;;;;;;5000894;28;117239;-80
2023/08/13 11:12:48;;;;;;;4.03;2.92;;;28.40;41.40;;;;;;5001059;28;115114;-80
2023/08/13 11:15:15;;;;;;;5.28;3.00;;;28.60;40.40;;;;;;5003674;28;114260;-79
2023/08/13 11:17:48;;;;;;;5.43;2.80;;;28.50;40.50;;;;;;5002111;28;114383;-81
2023/08/13 11:20:18;;;;;;;3.88;3.17;;;28.50;40.60;;;;;;5003082;28;114879;-79
2023/08/13 11:22:46;;;;;;;6.18;4.38;;;28.50;40.70;;;;;;5001465;28;115820;-79
2023/08/13 11:25:13;;;;;;;6.68;3.95;;;28.60;40.90;;;;;;5003653;28;114295;-80
2023/08/13 11:27:40;;;;;;;4.88;3.17;;;28.60;40.80;;;;;;5004020;28;114447;-80
2023/08/13 11:30:08;;;;;;;6.97;5.47;;;28.70;40.50;;;;;;5002608;28;115507;-80
2023/08/13 11:32:36;;;;;;;7.47;3.75;;;28.70;40.20;;;;;;5002630;28;114614;-79
2023/08/13 11:35:10;;;;;;;7.68;4.53;;;28.70;40.90;;;;;;5002868;28;114124;-79
2023/08/13 11:37:38;;;;;;;5.05;3.60;;;28.70;41.10;;;;;;5001386;28;114288;-79
2023/08/13 11:40:05;;;;;;;7.10;3.65;;;28.80;40.60;;;;;;5001149;28;116544;-81
2023/08/13 11:42:33;;;;;;;6.50;4.88;;;28.80;40.80;;;;;;5001483;28;114578;-79
2023/08/13 11:45:12;;;;;;;6.57;3.60;;;28.80;40.30;;;;;;5003353;28;114369;-80
2023/08/13 11:47:39;;;;;;;;;;;28.80;40.80;;;;;;5003792;28;114182;-80
2023/08/13 11:50:07;;;;;;;5.43;3.22;;;28.80;41.20;;;;;;5002121;28;114986;-80
2023/08/13 11:52:34;;;;;;;4.97;3.63;;;28.80;40.60;;;;;;5001319;28;114599;-79
2023/08/13 11:55:02;;;;;;;5.80;3.13;;;28.80;40.60;;;;;;5003410;28;114355;-80
2023/08/13 11:57:29;;;;;;;4.15;3.20;;;28.80;40.80;;;;;;5001751;28;114364;-80
2023/08/13 11:59:56;;;;;;;4.45;2.85;;;28.80;40.90;;;;;;5001813;28;114908;-80
2023/08/13 12:02:25;;;;;;;4.30;3.00;;;28.90;41.00;;;;;;5001359;28;114936;-81
2023/08/13 12:04:52;;;;;;;4.00;3.10;;;28.90;41.10;;;;;;4985257;28;114599;-79
2023/08/13 12:07:19;;;;;;;4.43;2.92;;;28.90;40.80;;;;;;5001966;28;114175;-80
2023/08/13 12:09:47;;;;;;;4.63;2.78;;;28.90;41.00;;;;;;5001055;28;115379;-79
2023/08/13 12:12:14;;;;;;;3.72;2.80;;;29.00;40.70;;;;;;5002145;28;114850;-81
2023/08/13 12:14:43;;;;;;;5.70;2.83;;;29.00;40.60;;;;;;4985357;28;114595;-80
2023/08/13 12:17:10;;;;;;;5.75;3.05;;;29.00;40.60;;;;;;5002971;28;114224;-78
2023/08/13 12:19:37;;;;;;;5.28;3.50;;;29.00;40.40;;;;;;4967709;28;114814;-79
2023/08/13 12:22:04;;;;;;;4.47;3.17;;;29.10;40.50;;;;;;5001542;28;115841;-81
2023/08/13 12:24:31;;;;;;;5.05;3.03;;;29.10;40.30;;;;;;5004750;28;114268;-80
2023/08/13 12:26:58;;;;;;;4.55;2.97;;;29.10;40.10;;;;;;5006184;28;114154;-80
2023/08/13 12:29:25;;;;;;;5.03;2.83;;;29.10;40.40;;;;;;5003954;28;118188;-80
2023/08/13 12:31:53;;;;;;;4.65;2.78;;;29.10;39.90;;;;;;5004817;28;114679;-80
2023/08/13 12:34:20;;;;;;;4.18;3.00;;;29.10;40.50;;;;;;5005942;28;114592;-80
2023/08/13 12:36:47;;;;;;;5.97;3.00;;;29.10;40.20;;;;;;5005228;28;114231;-78
2023/08/13 12:39:14;;;;;;;4.88;2.92;;;29.20;40.50;;;;;;5004779;28;114926;-81
2023/08/13 12:41:41;;;;;;;4.53;3.03;;;29.20;40.20;;;;;;4987503;28;117314;-80
2023/08/13 12:44:08;;;;;;;5.63;3.28;;;29.10;39.80;;;;;;5005737;28;114367;-80